Time;durP1;ratioP1;P1;durP2;ratioP2;P2;SDS_P1;SDS_P2;PMS_P1;PMS_P2;Temp;Humidity;BMP_temperature;BMP_pressure;BME280_temperature;BME280_humidity;BME280_pressure;Samples;Min_cycle;Max_cycle;Signal;HPM_P1;HPM_P2
2022/08/18 00:01:52;;;;;;;5.93;5.43;;;;;;;;;;4950834;28;20204;-72
2022/08/18 00:04:18;;;;;;;6.43;5.87;;;;;;;;;;4967439;28;20180;-72
2022/08/18 00:06:43;;;;;;;6.33;5.70;;;;;;;;;;4946726;28;20205;-72
2022/08/18 00:09:09;;;;;;;5.40;5.00;;;;;;;;;;4962283;28;20184;-72
2022/08/18 00:11:36;;;;;;;5.57;5.13;;;;;;;;;;4965857;28;20195;-72
2022/08/18 00:14:01;;;;;;;5.80;5.30;;;;;;;;;;4949107;28;20184;-72
2022/08/18 00:16:27;;;;;;;6.17;5.67;;;;;;;;;;4948092;28;20220;-72
2022/08/18 00:18:52;;;;;;;5.40;4.90;;;;;;;;;;4952335;28;20264;-72
2022/08/18 00:21:18;;;;;;;5.53;5.03;;;;;;;;;;4969729;28;20280;-72
2022/08/18 00:23:43;;;;;;;6.60;5.10;;;;;;;;;;4965140;28;20184;-72
2022/08/18 00:26:09;;;;;;;5.80;5.30;;;;;;;;;;4946851;28;20177;-72
2022/08/18 00:28:34;;;;;;;4.90;4.60;;;;;;;;;;4946071;28;20189;-72
2022/08/18 00:31:00;;;;;;;6.00;5.50;;;;;;;;;;4952349;28;20215;-72
2022/08/18 00:33:25;;;;;;;5.23;4.73;;;;;;;;;;4961951;28;20282;-73
2022/08/18 00:35:51;;;;;;;6.63;5.93;;;;;;;;;;4952413;28;20188;-73
2022/08/18 00:38:16;;;;;;;5.63;5.13;;;;;;;;;;4969726;28;20274;-73
2022/08/18 00:40:43;;;;;;;5.87;5.37;;;;;;;;;;4964332;28;20197;-73
2022/08/18 00:43:12;;;;;;;6.07;5.30;;;;;;;;;;4971203;28;20177;-73
2022/08/18 00:45:39;;;;;;;5.57;5.17;;;;;;;;;;4965430;28;20239;-73
2022/08/18 00:48:06;;;;;;;6.80;6.20;;;;;;;;;;4960892;28;20181;-73
2022/08/18 00:50:31;;;;;;;6.10;5.70;;;;;;;;;;4939304;28;20322;-73
2022/08/18 00:53:01;;;;;;;6.17;5.63;;;;;;;;;;4942080;28;20314;-73
2022/08/18 00:55:28;;;;;;;6.50;6.00;;;;;;;;;;4949011;28;20187;-73
2022/08/18 00:57:54;;;;;;;7.10;6.50;;;;;;;;;;4947426;28;20185;-73
2022/08/18 01:00:22;;;;;;;6.67;5.93;;;;;;;;;;4943863;28;20188;-73
2022/08/18 01:02:51;;;;;;;6.23;5.63;;;;;;;;;;4951466;28;20217;-73
2022/08/18 01:05:21;;;;;;;6.70;6.20;;;;;;;;;;4947697;28;20181;-73
2022/08/18 01:07:47;;;;;;;6.47;5.97;;;;;;;;;;4964136;28;20181;-73
2022/08/18 01:10:15;;;;;;;7.87;6.93;;;;;;;;;;4946449;28;20183;-73
2022/08/18 01:12:41;;;;;;;6.83;6.23;;;;;;;;;;4948729;28;20287;-73
2022/08/18 01:15:07;;;;;;;6.13;5.63;;;;;;;;;;4949305;28;20183;-73
2022/08/18 01:23:10;;;;;;;6.47;5.97;;;;;;;;;;4970621;28;20196;-73
2022/08/18 01:28:22;;;;;;;7.47;6.77;;;;;;;;;;4963242;28;20188;-73
2022/08/18 01:30:49;;;;;;;7.30;6.60;;;;;;;;;;4946960;28;20179;-73
2022/08/18 01:33:15;;;;;;;6.83;6.20;;;;;;;;;;4967765;28;20189;-73
2022/08/18 01:35:42;;;;;;;7.13;6.43;;;;;;;;;;4970230;28;20192;-73
2022/08/18 01:38:07;;;;;;;6.60;6.10;;;;;;;;;;4965479;28;20331;-73
2022/08/18 01:40:32;;;;;;;5.57;5.17;;;;;;;;;;4953155;28;20245;-73
2022/08/18 01:43:03;;;;;;;6.20;5.60;;;;;;;;;;4957059;28;20213;-73
2022/08/18 01:45:32;;;;;;;7.03;5.43;;;;;;;;;;4966111;28;20231;-73
2022/08/18 01:47:58;;;;;;;6.23;5.63;;;;;;;;;;4957326;28;20188;-73
2022/08/18 01:50:23;;;;;;;6.67;6.00;;;;;;;;;;4962411;28;20184;-72
2022/08/18 01:52:49;;;;;;;6.50;5.77;;;;;;;;;;4952102;28;20279;-73
2022/08/18 01:55:14;;;;;;;6.30;5.80;;;;;;;;;;4961178;28;20216;-73
2022/08/18 01:57:41;;;;;;;6.03;5.53;;;;;;;;;;4958722;28;20189;-73
2022/08/18 02:00:09;;;;;;;7.03;5.87;;;;;;;;;;4965495;28;20181;-72
2022/08/18 02:02:34;;;;;;;6.87;6.27;;;;;;;;;;4950943;28;20225;-73
2022/08/18 02:05:03;;;;;;;6.00;5.50;;;;;;;;;;4945428;28;20267;-72
2022/08/18 02:07:28;;;;;;;6.00;5.50;;;;;;;;;;4960603;28;20189;-73
2022/08/18 02:09:55;;;;;;;6.40;5.90;;;;;;;;;;4961003;28;20709;-73
2022/08/18 02:12:21;;;;;;;6.10;5.60;;;;;;;;;;4966620;28;20246;-73
2022/08/18 02:14:46;;;;;;;6.40;5.90;;;;;;;;;;4949199;28;20186;-72
2022/08/18 02:17:12;;;;;;;5.77;5.23;;;;;;;;;;4952295;28;20190;-73
2022/08/18 02:19:45;;;;;;;6.13;5.50;;;;;;;;;;4957337;28;20180;-73
2022/08/18 02:22:15;;;;;;;6.33;5.40;;;;;;;;;;4960767;28;20295;-73
2022/08/18 02:24:41;;;;;;;5.90;5.40;;;;;;;;;;4951261;28;20179;-73
2022/08/18 02:27:07;;;;;;;6.60;6.00;;;;;;;;;;4944891;28;20196;-73
2022/08/18 02:29:32;;;;;;;5.77;5.27;;;;;;;;;;4952455;28;20177;-72
2022/08/18 02:31:58;;;;;;;6.10;5.60;;;;;;;;;;4961402;28;20184;-72
2022/08/18 02:34:24;;;;;;;5.57;5.10;;;;;;;;;;4945511;28;20201;-73
2022/08/18 02:36:50;;;;;;;5.47;5.07;;;;;;;;;;4947242;29;20323;-73
2022/08/18 02:39:15;;;;;;;6.33;5.57;;;;;;;;;;4966612;28;20279;-73
2022/08/18 02:41:40;;;;;;;5.90;5.40;;;;;;;;;;4965380;28;20196;-72
2022/08/18 02:44:07;;;;;;;6.13;5.53;;;;;;;;;;4956884;28;20184;-73
2022/08/18 02:46:32;;;;;;;5.83;5.43;;;;;;;;;;4959896;28;20247;-73
2022/08/18 02:48:58;;;;;;;6.20;5.70;;;;;;;;;;4951163;28;20273;-72
2022/08/18 02:51:24;;;;;;;5.70;5.17;;;;;;;;;;4968236;28;20188;-72
2022/08/18 02:53:50;;;;;;;6.23;5.70;;;;;;;;;;4957881;28;20192;-73
2022/08/18 02:56:26;;;;;;;6.63;5.57;;;;;;;;;;4962566;28;20197;-72
2022/08/18 02:58:53;;;;;;;6.57;6.00;;;;;;;;;;4964710;28;20180;-73
2022/08/18 03:01:22;;;;;;;6.07;5.57;;;;;;;;;;4960121;28;20208;-73
2022/08/18 03:03:48;;;;;;;5.97;5.47;;;;;;;;;;4956991;28;20194;-72
2022/08/18 03:06:13;;;;;;;6.27;5.77;;;;;;;;;;4954261;28;20279;-72
2022/08/18 03:08:38;;;;;;;6.60;6.10;;;;;;;;;;4951549;28;20203;-72
2022/08/18 03:11:03;;;;;;;6.47;5.97;;;;;;;;;;4962631;28;20177;-72
2022/08/18 03:13:29;;;;;;;7.27;6.57;;;;;;;;;;4973400;28;20191;-72
2022/08/18 03:15:54;;;;;;;6.70;5.90;;;;;;;;;;4957159;28;20182;-72
2022/08/18 03:18:21;;;;;;;7.20;6.60;;;;;;;;;;4953701;28;20272;-72
2022/08/18 03:20:46;;;;;;;6.53;5.83;;;;;;;;;;4954743;28;20224;-72
2022/08/18 03:23:11;;;;;;;5.80;5.40;;;;;;;;;;4966378;28;20180;-73
2022/08/18 03:25:47;;;;;;;7.13;5.47;;;;;;;;;;4951447;28;20191;-72
2022/08/18 03:28:13;;;;;;;5.33;4.90;;;;;;;;;;4961296;28;20223;-73
2022/08/18 03:30:38;;;;;;;5.20;4.80;;;;;;;;;;4952887;28;20180;-73
2022/08/18 03:33:04;;;;;;;5.93;5.43;;;;;;;;;;4951135;28;20187;-73
2022/08/18 03:35:29;;;;;;;5.63;5.13;;;;;;;;;;4954518;28;20204;-72
2022/08/18 03:37:58;;;;;;;5.60;5.10;;;;;;;;;;4944864;28;20211;-72
2022/08/18 03:40:23;;;;;;;5.67;5.17;;;;;;;;;;4954230;28;20181;-72
2022/08/18 03:42:48;;;;;;;6.70;6.10;;;;;;;;;;4952213;28;20219;-72
2022/08/18 03:45:13;;;;;;;5.80;5.40;;;;;;;;;;4951177;28;20316;-72
2022/08/18 03:47:39;;;;;;;6.17;5.67;;;;;;;;;;4960701;28;20192;-72
2022/08/18 03:50:04;;;;;;;6.13;5.63;;;;;;;;;;4942645;28;20197;-72
2022/08/18 03:52:29;;;;;;;5.97;5.47;;;;;;;;;;4949381;28;20210;-73
2022/08/18 03:54:55;;;;;;;6.60;6.10;;;;;;;;;;4949560;28;20268;-73
2022/08/18 03:57:20;;;;;;;6.33;5.83;;;;;;;;;;4963204;28;20192;-72
2022/08/18 03:59:45;;;;;;;9.13;5.90;;;;;;;;;;4946662;28;20203;-72
2022/08/18 04:02:10;;;;;;;6.20;5.70;;;;;;;;;;4948089;28;20204;-72
2022/08/18 04:04:36;;;;;;;5.97;5.47;;;;;;;;;;4958502;28;20192;-72
2022/08/18 04:07:04;;;;;;;5.97;5.37;;;;;;;;;;4965258;28;20184;-72
2022/08/18 04:09:30;;;;;;;6.30;5.80;;;;;;;;;;4962729;28;20215;-72
2022/08/18 04:11:56;;;;;;;6.37;5.77;;;;;;;;;;4967803;28;20184;-73
2022/08/18 04:14:23;;;;;;;5.53;5.07;;;;;;;;;;4961123;28;20195;-72
2022/08/18 04:16:49;;;;;;;5.70;5.10;;;;;;;;;;4968088;28;20222;-73
2022/08/18 04:19:16;;;;;;;6.77;6.07;;;;;;;;;;4963244;28;20192;-72
2022/08/18 04:21:42;;;;;;;5.60;5.10;;;;;;;;;;4954702;28;20200;-72
2022/08/18 04:24:08;;;;;;;5.67;5.17;;;;;;;;;;4966328;28;20278;-73
2022/08/18 04:26:35;;;;;;;5.57;5.07;;;;;;;;;;4961043;28;20243;-72
2022/08/18 04:29:01;;;;;;;4.73;4.43;;;;;;;;;;4947719;28;20195;-73
2022/08/18 04:31:28;;;;;;;5.50;5.00;;;;;;;;;;4946308;28;20187;-72
2022/08/18 04:33:53;;;;;;;5.00;4.60;;;;;;;;;;4963709;28;20195;-73
2022/08/18 04:36:19;;;;;;;5.50;5.00;;;;;;;;;;4950827;28;20242;-73
2022/08/18 04:38:44;;;;;;;5.77;4.80;;;;;;;;;;4945840;28;20238;-73
2022/08/18 04:41:11;;;;;;;6.07;5.57;;;;;;;;;;4952088;28;20301;-73
2022/08/18 04:43:37;;;;;;;5.57;5.10;;;;;;;;;;4952108;28;20188;-72
2022/08/18 04:46:02;;;;;;;5.73;5.17;;;;;;;;;;4959970;28;20238;-72
2022/08/18 04:48:33;;;;;;;6.33;5.87;;;;;;;;;;4961396;28;20237;-72
2022/08/18 04:51:04;;;;;;;6.30;5.60;;;;;;;;;;4954649;28;20191;-72
2022/08/18 04:53:44;;;;;;;6.30;5.80;;;;;;;;;;4949438;28;20201;-73
2022/08/18 04:56:29;;;;;;;6.27;5.27;;;;;;;;;;4964705;28;20215;-72
2022/08/18 04:58:56;;;;;;;6.20;5.70;;;;;;;;;;4966889;28;20211;-72
2022/08/18 05:01:23;;;;;;;6.87;6.23;;;;;;;;;;4952284;28;20211;-72
2022/08/18 05:03:49;;;;;;;6.10;5.53;;;;;;;;;;4945459;28;20194;-78
2022/08/18 05:06:15;;;;;;;5.93;5.47;;;;;;;;;;4951154;28;20175;-77
2022/08/18 05:08:40;;;;;;;6.20;5.70;;;;;;;;;;4949216;28;20256;-78
2022/08/18 05:11:05;;;;;;;6.07;5.47;;;;;;;;;;4947979;28;20562;-78
2022/08/18 05:13:31;;;;;;;5.43;5.00;;;;;;;;;;4953085;28;20250;-78
2022/08/18 05:15:57;;;;;;;6.27;5.10;;;;;;;;;;4944453;28;20229;-77
2022/08/18 05:18:23;;;;;;;6.60;5.30;;;;;;;;;;4965045;28;20270;-77
2022/08/18 05:20:52;;;;;;;5.50;5.10;;;;;;;;;;4954726;28;20252;-78
2022/08/18 05:23:21;;;;;;;5.50;5.10;;;;;;;;;;4949203;28;20185;-78
2022/08/18 05:25:46;;;;;;;5.83;5.23;;;;;;;;;;4949874;28;20200;-77
2022/08/18 05:28:13;;;;;;;5.20;4.80;;;;;;;;;;4954166;28;20183;-77
2022/08/18 05:30:40;;;;;;;6.50;6.00;;;;;;;;;;4951451;28;20194;-77
2022/08/18 05:33:06;;;;;;;5.03;4.63;;;;;;;;;;4952583;28;20262;-78
2022/08/18 05:35:41;;;;;;;5.07;4.67;;;;;;;;;;4971380;28;20218;-77
2022/08/18 05:38:10;;;;;;;5.30;4.90;;;;;;;;;;4948094;28;20317;-78
2022/08/18 05:40:36;;;;;;;5.47;5.07;;;;;;;;;;4959076;28;20187;-77
2022/08/18 05:43:02;;;;;;;5.20;4.80;;;;;;;;;;4952419;28;20219;-77
2022/08/18 05:45:28;;;;;;;5.17;4.70;;;;;;;;;;4960189;28;20231;-78
2022/08/18 05:47:58;;;;;;;5.20;4.80;;;;;;;;;;4948174;28;20204;-78
2022/08/18 05:50:24;;;;;;;5.60;5.10;;;;;;;;;;4952997;28;20190;-77
2022/08/18 05:52:53;;;;;;;5.30;4.87;;;;;;;;;;4953747;28;20202;-78
2022/08/18 05:58:23;;;;;;;5.67;4.93;;;;;;;;;;4961505;28;20190;-77
2022/08/18 06:00:52;;;;;;;5.57;4.93;;;;;;;;;;4955948;28;20195;-77
2022/08/18 06:03:22;;;;;;;6.43;5.67;;;;;;;;;;4965385;28;20202;-77
2022/08/18 06:05:56;;;;;;;5.77;5.27;;;;;;;;;;4951200;28;20255;-77
2022/08/18 06:08:23;;;;;;;6.13;5.53;;;;;;;;;;4949409;28;20196;-77
2022/08/18 06:10:49;;;;;;;6.13;5.63;;;;;;;;;;4960742;28;20187;-77
2022/08/18 06:13:17;;;;;;;6.43;5.93;;;;;;;;;;4964201;28;20203;-77
2022/08/18 06:15:48;;;;;;;6.63;6.00;;;;;;;;;;4955015;28;20195;-77
2022/08/18 06:18:32;;;;;;;6.77;6.17;;;;;;;;;;4949742;28;20230;-77
2022/08/18 06:21:08;;;;;;;6.70;6.10;;;;;;;;;;4952150;28;20177;-77
2022/08/18 06:24:00;;;;;;;6.60;5.80;;;;;;;;;;4948634;28;20188;-77
2022/08/18 06:26:55;;;;;;;7.20;6.10;;;;;;;;;;4939938;28;20414;-77
2022/08/18 06:29:23;;;;;;;7.50;6.90;;;;;;;;;;4932139;28;20203;-76
2022/08/18 06:32:04;;;;;;;7.40;6.80;;;;;;;;;;4958734;28;20195;-78
2022/08/18 06:34:50;;;;;;;7.27;6.67;;;;;;;;;;4951381;28;20207;-76
2022/08/18 06:37:19;;;;;;;8.00;7.20;;;;;;;;;;4957164;28;20176;-76
2022/08/18 06:39:45;;;;;;;7.27;6.67;;;;;;;;;;4962751;28;20199;-77
2022/08/18 06:42:10;;;;;;;7.87;7.10;;;;;;;;;;4968559;28;20212;-77
2022/08/18 06:44:47;;;;;;;8.83;8.13;;;;;;;;;;4971492;28;20190;-77
2022/08/18 06:47:26;;;;;;;8.30;7.60;;;;;;;;;;4953114;28;20246;-76
2022/08/18 06:50:07;;;;;;;8.10;7.40;;;;;;;;;;4954542;28;20306;-77
2022/08/18 06:52:37;;;;;;;7.77;7.00;;;;;;;;;;4966963;28;20177;-77
2022/08/18 06:55:15;;;;;;;7.70;7.00;;;;;;;;;;4951945;29;20185;-77
2022/08/18 06:57:57;;;;;;;8.73;7.97;;;;;;;;;;4964919;28;20185;-76
2022/08/18 07:00:24;;;;;;;9.40;8.60;;;;;;;;;;4953265;28;20219;-77
2022/08/18 07:02:51;;;;;;;8.87;8.10;;;;;;;;;;4958142;28;20203;-78
2022/08/18 07:05:19;;;;;;;8.67;7.97;;;;;;;;;;4953335;28;20175;-77
2022/08/18 07:07:45;;;;;;;9.13;8.30;;;;;;;;;;4953750;28;20235;-77
2022/08/18 07:10:13;;;;;;;9.97;9.13;;;;;;;;;;4954408;28;20264;-77
2022/08/18 07:12:38;;;;;;;9.47;8.67;;;;;;;;;;4948824;28;20176;-77
2022/08/18 07:15:06;;;;;;;10.07;9.23;;;;;;;;;;4956716;28;20188;-78
2022/08/18 07:17:37;;;;;;;9.43;8.63;;;;;;;;;;4956255;28;20176;-77
2022/08/18 07:20:07;;;;;;;9.70;8.83;;;;;;;;;;4953105;28;20188;-77
2022/08/18 07:22:51;;;;;;;10.30;8.87;;;;;;;;;;4950098;28;20269;-76
2022/08/18 07:25:25;;;;;;;9.33;8.60;;;;;;;;;;4959081;28;20182;-76
2022/08/18 07:27:54;;;;;;;11.33;10.23;;;;;;;;;;4957570;28;20176;-77
2022/08/18 07:30:20;;;;;;;11.30;10.10;;;;;;;;;;4986700;28;20192;-77
2022/08/18 07:33:05;;;;;;;10.90;9.80;;;;;;;;;;4963283;28;20185;-77
2022/08/18 07:35:40;;;;;;;10.23;9.33;;;;;;;;;;4951072;28;20268;-77
2022/08/18 07:38:38;;;;;;;13.47;10.87;;;;;;;;;;4959241;28;20191;-77
2022/08/18 07:41:19;;;;;;;11.47;9.87;;;;;;;;;;4906727;28;20203;-77
2022/08/18 07:43:48;;;;;;;10.77;9.87;;;;;;;;;;4949837;28;20168;-77
2022/08/18 07:46:32;;;;;;;12.07;10.87;;;;;;;;;;4956513;28;20227;-77
2022/08/18 07:49:00;;;;;;;12.07;10.97;;;;;;;;;;4954258;28;20297;-76
2022/08/18 07:51:46;;;;;;;12.57;11.37;;;;;;;;;;4956018;28;20201;-77
2022/08/18 07:54:37;;;;;;;12.80;11.60;;;;;;;;;;4962877;28;20170;-76
2022/08/18 07:57:05;;;;;;;14.20;12.80;;;;;;;;;;4955007;28;20193;-77
2022/08/18 07:59:49;;;;;;;12.33;11.13;;;;;;;;;;4942205;28;20212;-76
2022/08/18 08:02:14;;;;;;;14.03;12.83;;;;;;;;;;4964116;28;20216;-77
2022/08/18 08:04:40;;;;;;;12.43;11.30;;;;;;;;;;4954891;28;20177;-77
2022/08/18 08:07:09;;;;;;;10.93;9.87;;;;;;;;;;4941613;28;20281;-76
2022/08/18 08:09:38;;;;;;;10.63;9.77;;;;;;;;;;4962658;28;20358;-76
2022/08/18 08:12:13;;;;;;;12.13;10.93;;;;;;;;;;4973988;28;20196;-77
2022/08/18 08:14:44;;;;;;;13.67;12.10;;;;;;;;;;4953692;28;20207;-77
2022/08/18 08:17:12;;;;;;;14.73;13.43;;;;;;;;;;4956826;28;20180;-78
2022/08/18 08:19:56;;;;;;;13.50;12.30;;;;;;;;;;4960394;28;20254;-77
2022/08/18 08:22:30;;;;;;;13.43;12.33;;;;;;;;;;4957532;28;20212;-77
2022/08/18 08:24:55;;;;;;;15.23;13.93;;;;;;;;;;4961436;28;20203;-77
2022/08/18 08:27:39;;;;;;;14.20;13.00;;;;;;;;;;4956287;28;20224;-77
2022/08/18 08:30:05;;;;;;;15.83;14.33;;;;;;;;;;4948810;28;20188;-77
2022/08/18 08:32:32;;;;;;;14.40;13.00;;;;;;;;;;4950079;28;20173;-77
2022/08/18 08:35:09;;;;;;;13.43;12.07;;;;;;;;;;4943456;28;20398;-76
2022/08/18 08:37:40;;;;;;;13.97;12.67;;;;;;;;;;4965699;28;20181;-77
2022/08/18 08:40:14;;;;;;;14.63;13.13;;;;;;;;;;4959599;28;20185;-78
2022/08/18 08:42:48;;;;;;;14.97;13.67;;;;;;;;;;4970263;28;20203;-77
2022/08/18 08:45:20;;;;;;;15.50;13.83;;;;;;;;;;4963413;28;20224;-77
2022/08/18 08:47:48;;;;;;;15.90;14.37;;;;;;;;;;4976673;28;20190;-76
2022/08/18 08:50:16;;;;;;;14.77;13.50;;;;;;;;;;4949528;28;20225;-77
2022/08/18 08:52:49;;;;;;;16.20;13.53;;;;;;;;;;4951517;28;20176;-76
2022/08/18 08:55:25;;;;;;;14.00;12.30;;;;;;;;;;4965294;28;20178;-77
2022/08/18 08:57:56;;;;;;;14.53;13.27;;;;;;;;;;4950560;28;20221;-77
2022/08/18 09:00:21;;;;;;;13.00;11.80;;;;;;;;;;4948195;28;20237;-76
2022/08/18 09:03:06;;;;;;;13.17;12.07;;;;;;;;;;4944164;28;20350;-77
2022/08/18 09:05:47;;;;;;;14.37;12.97;;;;;;;;;;4951957;28;20179;-76
2022/08/18 09:08:30;;;;;;;13.00;11.70;;;;;;;;;;4959693;28;20229;-77
2022/08/18 09:10:58;;;;;;;13.10;12.00;;;;;;;;;;4964618;28;20251;-77
2022/08/18 09:13:23;;;;;;;15.47;13.93;;;;;;;;;;4970479;28;20180;-77
2022/08/18 09:16:00;;;;;;;12.23;11.10;;;;;;;;;;4955607;28;20182;-77
2022/08/18 09:18:33;;;;;;;11.83;10.73;;;;;;;;;;4961255;28;20197;-76
2022/08/18 09:21:05;;;;;;;11.43;10.53;;;;;;;;;;4949251;28;20183;-76
2022/08/18 09:23:31;;;;;;;11.97;10.97;;;;;;;;;;4966332;28;20233;-76
2022/08/18 09:26:01;;;;;;;12.40;11.27;;;;;;;;;;4958615;28;20167;-76
2022/08/18 09:28:35;;;;;;;12.10;11.10;;;;;;;;;;4957548;28;20223;-76
2022/08/18 09:31:00;;;;;;;13.53;10.77;;;;;;;;;;4977619;28;20341;-76
2022/08/18 09:33:25;;;;;;;12.07;11.07;;;;;;;;;;4958134;28;20244;-76
2022/08/18 09:35:58;;;;;;;10.90;9.80;;;;;;;;;;4952063;28;20286;-77
2022/08/18 09:41:31;;;;;;;10.47;9.57;;;;;;;;;;4968183;28;20232;-76
2022/08/18 09:44:08;;;;;;;12.20;11.20;;;;;;;;;;4956165;28;20259;-77
2022/08/18 09:46:40;;;;;;;10.93;9.93;;;;;;;;;;4947212;28;20234;-76
2022/08/18 09:49:24;;;;;;;10.83;9.83;;;;;;;;;;4955130;28;20184;-77
2022/08/18 09:51:56;;;;;;;11.23;10.33;;;;;;;;;;4946593;28;20281;-76
2022/08/18 09:54:29;;;;;;;15.20;10.10;;;;;;;;;;4964906;28;20194;-77
2022/08/18 09:57:04;;;;;;;11.07;9.93;;;;;;;;;;4952433;28;20194;-77
2022/08/18 09:59:33;;;;;;;10.73;9.87;;;;;;;;;;4957852;28;20187;-77
2022/08/18 10:01:59;;;;;;;11.40;10.30;;;;;;;;;;4971185;28;20236;-77
2022/08/18 10:04:26;;;;;;;10.77;9.77;;;;;;;;;;4950263;28;20186;-77
2022/08/18 10:06:52;;;;;;;11.43;10.30;;;;;;;;;;4958639;28;20210;-77
2022/08/18 10:09:39;;;;;;;11.67;10.63;;;;;;;;;;4947298;28;20427;-77
2022/08/18 10:12:07;;;;;;;10.50;9.60;;;;;;;;;;4963111;28;20273;-78
2022/08/18 10:14:42;;;;;;;10.77;9.77;;;;;;;;;;4953554;28;20179;-78
2022/08/18 10:17:17;;;;;;;12.33;11.07;;;;;;;;;;4958719;28;20252;-78
2022/08/18 10:19:51;;;;;;;11.93;10.73;;;;;;;;;;4954203;28;20253;-77
2022/08/18 10:22:34;;;;;;;11.73;10.53;;;;;;;;;;4950201;28;20207;-77
2022/08/18 10:24:59;;;;;;;11.33;10.23;;;;;;;;;;4947624;28;20198;-77
2022/08/18 10:27:43;;;;;;;11.20;10.20;;;;;;;;;;4952794;28;20185;-76
2022/08/18 10:30:31;;;;;;;14.00;12.90;;;;;;;;;;4955818;28;20261;-77
2022/08/18 10:32:56;;;;;;;12.83;11.70;;;;;;;;;;4946219;28;20394;-76
2022/08/18 10:35:34;;;;;;;13.53;12.33;;;;;;;;;;4950166;28;20213;-77
2022/08/18 10:38:02;;;;;;;13.67;12.47;;;;;;;;;;4965483;28;20190;-77
2022/08/18 10:40:28;;;;;;;13.13;11.93;;;;;;;;;;4957666;28;20210;-77
2022/08/18 10:42:59;;;;;;;13.10;11.90;;;;;;;;;;4952302;28;20211;-77
2022/08/18 10:45:28;;;;;;;14.27;12.73;;;;;;;;;;4952736;28;20334;-77
2022/08/18 10:48:03;;;;;;;16.90;15.40;;;;;;;;;;4950480;28;20178;-77
2022/08/18 10:50:29;;;;;;;18.33;16.63;;;;;;;;;;4972000;28;20215;-77
2022/08/18 10:53:04;;;;;;;18.27;16.67;;;;;;;;;;4963109;28;20272;-77
2022/08/18 10:55:41;;;;;;;17.97;16.47;;;;;;;;;;4961313;28;20179;-77
2022/08/18 10:58:07;;;;;;;14.33;13.03;;;;;;;;;;4952066;28;20190;-78
2022/08/18 11:00:47;;;;;;;16.17;14.57;;;;;;;;;;4957083;28;20202;-77
2022/08/18 11:03:21;;;;;;;16.90;15.50;;;;;;;;;;4962709;28;20211;-77
2022/08/18 11:05:47;;;;;;;20.60;18.73;;;;;;;;;;4961346;28;20193;-77
2022/08/18 11:08:13;;;;;;;15.63;14.13;;;;;;;;;;4950793;28;20175;-76
2022/08/18 11:10:42;;;;;;;16.27;14.90;;;;;;;;;;4953086;28;20179;-77
2022/08/18 11:13:12;;;;;;;16.77;15.30;;;;;;;;;;4949597;28;20259;-77
2022/08/18 11:15:44;;;;;;;17.83;16.17;;;;;;;;;;4951481;28;20184;-78
2022/08/18 11:18:29;;;;;;;16.83;15.33;;;;;;;;;;4956291;28;20277;-77
2022/08/18 11:21:13;;;;;;;17.13;15.70;;;;;;;;;;4955487;28;20201;-77
2022/08/18 11:23:39;;;;;;;16.50;15.13;;;;;;;;;;4962227;28;20187;-77
2022/08/18 11:26:14;;;;;;;15.57;14.17;;;;;;;;;;4954530;28;20218;-77
2022/08/18 11:28:39;;;;;;;14.80;13.50;;;;;;;;;;4955332;28;20198;-78
2022/08/18 11:31:05;;;;;;;14.13;12.93;;;;;;;;;;4950467;28;20199;-77
2022/08/18 11:33:30;;;;;;;13.93;12.63;;;;;;;;;;4948060;28;20196;-77
2022/08/18 11:35:58;;;;;;;14.53;13.33;;;;;;;;;;4946783;28;20184;-77
2022/08/18 11:38:23;;;;;;;13.73;12.57;;;;;;;;;;4954299;28;20189;-77
2022/08/18 11:40:51;;;;;;;13.50;12.40;;;;;;;;;;4965416;28;20199;-77
2022/08/18 11:43:26;;;;;;;12.47;11.37;;;;;;;;;;4967000;28;20262;-78
2022/08/18 11:45:52;;;;;;;11.90;10.90;;;;;;;;;;4952399;28;20231;-77
2022/08/18 11:48:27;;;;;;;12.80;11.80;;;;;;;;;;4951469;28;20191;-77
2022/08/18 11:50:55;;;;;;;12.43;11.23;;;;;;;;;;4953082;28;20183;-78
2022/08/18 11:53:42;;;;;;;11.97;11.00;;;;;;;;;;4957008;28;20247;-78
2022/08/18 11:56:16;;;;;;;12.47;11.27;;;;;;;;;;4947955;28;20184;-78
2022/08/18 11:58:48;;;;;;;13.77;12.57;;;;;;;;;;4949305;28;20233;-77
2022/08/18 12:01:31;;;;;;;13.37;12.07;;;;;;;;;;4965349;28;20181;-78
2022/08/18 12:04:06;;;;;;;13.00;11.80;;;;;;;;;;4950145;28;20176;-78
2022/08/18 12:06:31;;;;;;;13.23;11.93;;;;;;;;;;4951833;28;20176;-78
2022/08/18 12:09:01;;;;;;;12.88;11.80;;;;;;;;;;4943448;28;20184;-78
2022/08/18 12:11:28;;;;;;;14.50;13.15;;;;;;;;;;4954116;28;20295;-77
2022/08/18 12:13:58;;;;;;;15.40;14.13;;;;;;;;;;4951842;28;20184;-78
2022/08/18 12:16:40;;;;;;;14.10;12.80;;;;;;;;;;4956050;28;20193;-77
2022/08/18 12:19:07;;;;;;;14.32;12.85;;;;;;;;;;4950232;28;20193;-79
2022/08/18 12:21:36;;;;;;;12.73;11.52;;;;;;;;;;4951598;28;20228;-77
2022/08/18 12:24:03;;;;;;;13.23;10.48;;;;;;;;;;4946190;28;20188;-74
2022/08/18 12:26:28;;;;;;;11.73;10.73;;;;;;;;;;4950199;28;20196;-74
2022/08/18 12:28:54;;;;;;;12.95;11.68;;;;;;;;;;4959820;28;20177;-71
2022/08/18 12:31:19;;;;;;;13.90;12.60;;;;;;;;;;4954493;28;20204;-71
2022/08/18 12:33:44;;;;;;;12.75;11.65;;;;;;;;;;4951031;28;20257;-71
2022/08/18 12:36:09;;;;;;;12.50;11.00;;;;;;;;;;4960396;28;20189;-71
2022/08/18 12:38:34;;;;;;;13.80;12.57;;;;;;;;;;4955660;28;20309;-70
2022/08/18 12:41:00;;;;;;;10.80;9.90;;;;;;;;;;4962622;28;20169;-71
2022/08/18 12:43:26;;;;;;;10.95;9.90;;;;;;;;;;4963816;28;20225;-71
2022/08/18 12:45:51;;;;;;;10.30;9.40;;;;;;;;;;4962192;28;20319;-71
2022/08/18 12:48:17;;;;;;;10.10;9.30;;;;;;;;;;4951588;28;20185;-71
2022/08/18 12:50:42;;;;;;;10.20;9.30;;;;;;;;;;4949633;28;20231;-72
2022/08/18 12:53:07;;;;;;;10.10;9.10;;;;;;;;;;4959539;28;20188;-71
2022/08/18 12:55:36;;;;;;;12.25;11.25;;;;;;;;;;4961520;28;20182;-71
2022/08/18 12:58:03;;;;;;;9.97;9.07;;;;;;;;;;4958497;28;20198;-71
2022/08/18 13:00:29;;;;;;;9.80;8.80;;;;;;;;;;4967920;28;20188;-71
2022/08/18 13:02:54;;;;;;;10.38;9.40;;;;;;;;;;4952676;28;20605;-71
2022/08/18 13:05:19;;;;;;;9.45;8.63;;;;;;;;;;4951227;28;20181;-71
2022/08/18 13:07:45;;;;;;;10.45;9.38;;;;;;;;;;4944884;28;20181;-71
2022/08/18 13:10:10;;;;;;;7.97;7.18;;;;;;;;;;4965773;28;20180;-71
2022/08/18 13:12:36;;;;;;;9.20;8.32;;;;;;;;;;4974677;28;20224;-71
2022/08/18 13:15:01;;;;;;;9.48;8.68;;;;;;;;;;4941986;28;20233;-71
2022/08/18 13:17:26;;;;;;;9.48;8.68;;;;;;;;;;4954951;28;20213;-71
2022/08/18 13:19:51;;;;;;;9.13;8.35;;;;;;;;;;4944172;28;20205;-71
2022/08/18 13:22:17;;;;;;;10.48;9.65;;;;;;;;;;4948910;28;20213;-71
2022/08/18 13:24:42;;;;;;;10.23;9.43;;;;;;;;;;4960804;28;20248;-71
2022/08/18 13:27:07;;;;;;;13.07;9.68;;;;;;;;;;4954220;28;20181;-71
2022/08/18 13:29:33;;;;;;;9.65;8.85;;;;;;;;;;4964307;28;20176;-72
2022/08/18 13:31:58;;;;;;;9.73;8.90;;;;;;;;;;4969743;28;20184;-71
2022/08/18 13:34:26;;;;;;;11.68;9.00;;;;;;;;;;4952741;28;20211;-71
2022/08/18 13:36:52;;;;;;;11.80;10.55;;;;;;;;;;4952122;28;20185;-71
2022/08/18 13:39:19;;;;;;;10.30;9.50;;;;;;;;;;4962761;28;20181;-71
2022/08/18 13:41:46;;;;;;;10.32;9.32;;;;;;;;;;4971325;28;20234;-71
2022/08/18 13:44:12;;;;;;;10.27;9.48;;;;;;;;;;4960643;28;20302;-71
2022/08/18 13:46:44;;;;;;;10.13;9.23;;;;;;;;;;4950649;28;20905;-71
2022/08/18 13:49:10;;;;;;;9.93;8.98;;;;;;;;;;4964829;28;20181;-71
2022/08/18 13:51:35;;;;;;;9.73;8.98;;;;;;;;;;4967560;28;20181;-71
2022/08/18 13:54:01;;;;;;;9.40;8.60;;;;;;;;;;4953420;28;20216;-71
2022/08/18 13:56:26;;;;;;;9.88;9.05;;;;;;;;;;4947396;28;20186;-71
2022/08/18 13:58:51;;;;;;;10.90;9.85;;;;;;;;;;4944381;28;20182;-72
2022/08/18 14:01:18;;;;;;;10.05;9.15;;;;;;;;;;4947836;28;20178;-71
2022/08/18 14:03:43;;;;;;;10.98;9.88;;;;;;;;;;4961524;28;20204;-71
2022/08/18 14:06:08;;;;;;;10.30;9.32;;;;;;;;;;4942441;28;20185;-71
2022/08/18 14:08:33;;;;;;;9.38;8.68;;;;;;;;;;4964939;28;20180;-81
2022/08/18 14:11:00;;;;;;;8.85;8.13;;;;;;;;;;4957025;28;20204;-78
2022/08/18 14:13:25;;;;;;;10.68;9.77;;;;;;;;;;4954018;28;20239;-77
2022/08/18 14:15:52;;;;;;;10.25;9.25;;;;;;;;;;4953944;28;20185;-78
2022/08/18 14:18:18;;;;;;;9.82;9.07;;;;;;;;;;4951313;28;20181;-77
2022/08/18 14:28:55;;;;;;;10.18;9.38;;;;;;;;;;4967065;28;20191;-78
2022/08/18 14:31:21;;;;;;;8.93;8.23;;;;;;;;;;4951795;28;20185;-78
2022/08/18 14:33:46;;;;;;;10.77;9.98;;;;;;;;;;4948462;28;20228;-78
2022/08/18 14:36:12;;;;;;;9.45;8.75;;;;;;;;;;4951324;28;20177;-78
2022/08/18 14:38:38;;;;;;;9.77;8.88;;;;;;;;;;4949990;28;20253;-77
2022/08/18 14:41:04;;;;;;;9.90;8.95;;;;;;;;;;4946967;28;20269;-77
2022/08/18 14:43:30;;;;;;;9.30;8.38;;;;;;;;;;4951751;28;20197;-71
2022/08/18 14:45:55;;;;;;;10.02;9.10;;;;;;;;;;4950519;28;20235;-71
2022/08/18 14:48:25;;;;;;;10.35;9.35;;;;;;;;;;4951860;28;20181;-71
2022/08/18 14:50:54;;;;;;;9.80;8.68;;;;;;;;;;4966557;28;20169;-71
2022/08/18 14:53:20;;;;;;;10.60;9.73;;;;;;;;;;4964027;28;20223;-71
2022/08/18 14:55:51;;;;;;;9.73;8.93;;;;;;;;;;4969024;28;20209;-71
2022/08/18 14:58:17;;;;;;;9.73;8.73;;;;;;;;;;4971491;28;20185;-71
2022/08/18 15:00:42;;;;;;;9.50;8.60;;;;;;;;;;4948392;28;20184;-71
2022/08/18 15:03:10;;;;;;;9.23;8.43;;;;;;;;;;4954627;28;20205;-71
2022/08/18 15:05:35;;;;;;;8.10;7.32;;;;;;;;;;4968133;28;20181;-71
2022/08/18 15:08:02;;;;;;;10.65;9.57;;;;;;;;;;4963190;28;20232;-71